Pagina principale
METAR-TAF:

METAR-TAF

Aeroporti :

La Chaux-de-Fonds, Svizzera

latitudine: 47-05-03N, longitudine: 006-47-37E, altezza: 1027 m

Osservazione

Il bollettino è stato emesso 44 minuti fa, alle 12:50 UTC
Vento 8 kt da ovest/sud-ovest, variando fra sud e ovest/nord-ovest
Temperature 18°C
Umidità 59%
Pressione 1021 hPa
Visibilità 10 km o più
Nubi sparse ad un'altezza di 3500 ft

METAR: LSGC 271250Z 24008KT 190V290 9999 SCT035 18/10 Q1021

Ora: 15:34 (13:34 UTC)

Previsione

Il bollettino è stato emesso 2 ore e 9 minuti fa, alle 11:25 UTC
Previsione valida dal 27 alle 12 UTC al 27 alle 21 UTC
Vento 8 kt da ovest/sud-ovest
Visibilità 10 km o più
Poco nuvoloso ad un'altezza di 3000 ft
Probabilità 30% :
Temporaneamente
dal 27 alle 18 UTC al 27 alle 21 UTC
Nubi sparse ad un'altezza di 3000 ft, Cumulo congesto.
rovesci di pioggia

TAF: LSGC 271125Z 2712/2721 25008KT 9999 FEW030 PROB30 TEMPO 2718/2721 SHRA SCT030TCU

Osservazioni e previsioni meteorologiche di più di 4000 aeroporti (messaggi METAR e TAF).

Le stazioni disponibili sono rappresentate dai dischi gialli e rossi sulla carta.

Puntare il mouse per vedere il nome della stazione.

Clicca sopra per visualizzare le osservazioni e previsioni meteorologiche.

Per cambiare la mappa : fare clic sui pulsanti verdi con una croce nera per ingrandire, il pulsante verde con un trattino per diminuire, o sulla freccia verde per le mappe adiacenti.


METAR-TAF: